Terminal Aerodrome Forecast
Issued by NWS Northern Indiana

Home | Current Version | Previous Version | Text Only | Print | Product List | Glossary Off
Versions: 1 2 3 4 5 6 7 8 9 10 11 12 13 14 15

489
FTUS43 KIWX 130428 AAA
TAFFWA
TAF AMD
KFWA 130428Z 1304/1324 30012G20KT P6SM SCT020 BKN050
      TEMPO 1305/1307 3SM -SHSN OVC020
     FM130900 31011KT P6SM VCSH BKN050=

USA.gov is the U.S. government's official web portal to all federal, state and local government web resources and services.